createdAt,value
2019-04-20T00:03:18.055Z,8.90
2019-04-20T00:08:27.404Z,8.89
2019-04-20T00:13:41.809Z,8.99
2019-04-20T00:18:42.956Z,9.03
2019-04-20T00:23:46.165Z,9.07
2019-04-20T00:29:07.007Z,9.01
2019-04-20T00:34:04.614Z,8.95
2019-04-20T00:39:05.768Z,8.86
2019-04-20T00:44:13.403Z,8.54
2019-04-20T00:49:32.288Z,8.36
2019-04-20T00:54:22.228Z,8.30
2019-04-20T00:59:43.027Z,8.34
2019-04-20T01:04:56.452Z,8.31
2019-04-20T01:09:58.331Z,8.12
2019-04-20T01:15:06.254Z,7.84
2019-04-20T01:20:11.885Z,7.74
2019-04-20T01:25:22.060Z,7.42
2019-04-20T01:30:30.281Z,7.17
2019-04-20T01:35:45.059Z,7.04
2019-04-20T01:40:38.066Z,6.95
2019-04-20T01:45:44.123Z,6.96
2019-04-20T01:50:59.824Z,6.79
2019-04-20T01:56:13.280Z,6.69
2019-04-20T02:01:09.730Z,6.53
2019-04-20T02:06:21.301Z,6.53
2019-04-20T02:11:29.613Z,6.47
2019-04-20T02:16:37.323Z,6.53
2019-04-20T02:21:51.791Z,6.48
2019-04-20T02:26:41.230Z,6.36
2019-04-20T02:37:53.859Z,6.09
2019-04-20T02:42:50.745Z,6.05
2019-04-20T02:47:56.713Z,6.06
2019-04-20T02:58:01.907Z,5.88
2019-04-20T03:02:55.297Z,5.75
2019-04-20T03:08:13.785Z,5.70
2019-04-20T03:13:14.143Z,5.71
2019-04-20T03:18:21.304Z,5.73
2019-04-20T03:28:48.847Z,5.75
2019-04-20T03:34:13.454Z,5.65
2019-04-20T03:38:57.351Z,5.64
2019-04-20T03:43:45.675Z,5.46
2019-04-20T03:49:04.481Z,5.35
2019-04-20T03:54:16.949Z,5.29
2019-04-20T03:59:34.884Z,5.34
2019-04-20T04:05:02.793Z,5.33
2019-04-20T04:10:02.480Z,5.39
2019-04-20T04:14:51.549Z,5.44
2019-04-20T04:20:03.425Z,5.35
2019-04-20T04:25:18.356Z,5.36
2019-04-20T04:30:21.829Z,5.45
2019-04-20T04:35:26.481Z,5.67
2019-04-20T04:40:51.408Z,5.83
2019-04-20T04:45:31.473Z,5.96
2019-04-20T04:50:44.892Z,6.16
2019-04-20T04:55:48.669Z,6.40
2019-04-20T05:00:46.786Z,6.64
2019-04-20T05:06:16.694Z,6.84
2019-04-20T05:11:02.657Z,7.00
2019-04-20T05:16:19.239Z,7.23
2019-04-20T05:21:30.045Z,7.47
2019-04-20T05:26:45.973Z,7.70
2019-04-20T05:31:33.993Z,7.98
2019-04-20T05:36:57.519Z,8.24
2019-04-20T05:41:56.626Z,8.47
2019-04-20T05:47:06.984Z,8.69
2019-04-20T05:52:26.294Z,8.93
2019-04-20T05:57:25.014Z,9.13
2019-04-20T06:02:27.279Z,9.36
2019-04-20T06:07:40.374Z,9.65
2019-04-20T06:12:40.268Z,9.89
2019-04-20T06:18:02.725Z,10.17
2019-04-20T06:23:39.842Z,10.35
2019-04-20T06:28:30.174Z,10.57
2019-04-20T06:34:19.879Z,10.65
2019-04-20T06:39:18.644Z,10.79
2019-04-20T06:44:24.832Z,11.02
2019-04-20T06:49:31.776Z,11.26
2019-04-20T06:54:38.067Z,11.43
2019-04-20T06:59:47.386Z,11.66
2019-04-20T07:09:59.827Z,12.29
2019-04-20T07:14:57.729Z,12.45
2019-04-20T07:20:09.880Z,12.70
2019-04-20T07:25:21.463Z,12.89
2019-04-20T07:30:29.661Z,13.06
2019-04-20T07:35:38.829Z,13.31
2019-04-20T07:40:39.464Z,13.52
2019-04-20T07:45:41.598Z,13.79
2019-04-20T07:50:44.873Z,14.06
2019-04-20T07:55:57.993Z,14.44
2019-04-20T08:01:14.241Z,14.64
2019-04-20T08:06:19.850Z,14.92
2019-04-20T08:11:38.008Z,15.14
2019-04-20T08:21:55.150Z,15.83
2019-04-20T08:26:45.384Z,16.12
2019-04-20T08:32:17.923Z,16.38
2019-04-20T08:37:20.813Z,16.70
2019-04-20T08:42:39.951Z,17.06
2019-04-20T08:47:48.709Z,17.38
2019-04-20T08:57:31.464Z,17.92
2019-04-20T09:02:36.917Z,18.19
2019-04-20T09:07:53.840Z,18.32
2019-04-20T09:13:04.906Z,18.46
2019-04-20T09:18:03.737Z,18.43
2019-04-20T09:23:27.090Z,18.68
2019-04-20T09:28:34.566Z,18.91
2019-04-20T09:34:07.420Z,18.92
2019-04-20T09:39:14.098Z,18.91
2019-04-20T09:44:11.184Z,19.01
2019-04-20T09:49:28.608Z,19.21
2019-04-20T09:54:41.604Z,19.19
2019-04-20T09:59:49.678Z,19.24
2019-04-20T10:04:35.593Z,19.28
2019-04-20T10:09:44.832Z,19.28
2019-04-20T10:14:47.351Z,19.48
2019-04-20T10:19:51.844Z,19.37
2019-04-20T10:24:57.181Z,19.61
2019-04-20T10:30:04.685Z,19.75
2019-04-20T10:35:09.016Z,19.85
2019-04-20T10:40:31.582Z,20.09
2019-04-20T10:45:21.326Z,20.28
2019-04-20T10:50:27.148Z,20.64
2019-04-20T10:55:31.893Z,20.65
2019-04-20T11:00:46.830Z,20.87
2019-04-20T11:05:52.853Z,21.37
2019-04-20T11:11:07.091Z,21.44
2019-04-20T11:16:06.467Z,21.87
2019-04-20T11:21:11.409Z,21.83
2019-04-20T11:26:16.248Z,22.63
2019-04-20T11:31:22.009Z,23.68
2019-04-20T11:36:27.430Z,24.48
2019-04-20T11:41:34.118Z,24.56
2019-04-20T11:46:38.758Z,24.77
2019-04-20T11:51:43.572Z,24.57
2019-04-20T11:56:49.055Z,25.24
2019-04-20T12:02:02.713Z,25.71
2019-04-20T12:07:05.081Z,25.51
2019-04-20T12:12:23.468Z,25.89
2019-04-20T12:17:15.845Z,26.51
2019-04-20T12:22:21.403Z,27.19
2019-04-20T12:27:26.972Z,27.77
2019-04-20T12:32:35.239Z,27.27
2019-04-20T12:37:38.938Z,27.19
2019-04-20T12:42:44.248Z,26.08
2019-04-20T12:47:51.483Z,26.02
2019-04-20T12:52:56.747Z,25.15
2019-04-20T12:58:02.726Z,24.25
2019-04-20T13:03:07.553Z,25.10
2019-04-20T13:08:15.905Z,25.53
2019-04-20T13:13:22.732Z,26.96
2019-04-20T13:18:31.389Z,26.90
2019-04-20T13:23:37.051Z,26.60
2019-04-20T13:28:42.966Z,26.56
2019-04-20T13:33:47.885Z,27.30
2019-04-20T13:38:52.531Z,27.35
2019-04-20T13:43:59.318Z,27.50
2019-04-20T13:49:04.859Z,27.18
2019-04-20T13:54:16.200Z,26.05
2019-04-20T13:59:28.158Z,25.64
2019-04-20T14:04:34.809Z,25.70
2019-04-20T14:09:41.452Z,26.04
2019-04-20T14:14:46.913Z,26.96
2019-04-20T14:19:52.902Z,27.33
2019-04-20T14:24:57.573Z,27.11
2019-04-20T14:30:03.383Z,26.51
2019-04-20T14:35:09.519Z,25.78
2019-04-20T14:40:14.576Z,25.66
2019-04-20T14:45:20.718Z,25.47
2019-04-20T14:50:26.019Z,26.25
2019-04-20T14:55:31.351Z,25.54
2019-04-20T15:00:56.533Z,25.21
2019-04-20T15:06:03.275Z,25.48
2019-04-20T15:11:09.122Z,25.29
2019-04-20T15:16:15.057Z,25.05
2019-04-20T15:21:25.275Z,24.18
2019-04-20T15:26:30.730Z,23.42
2019-04-20T15:31:36.447Z,22.81
2019-04-20T15:36:42.296Z,21.70
2019-04-20T15:41:47.344Z,22.22
2019-04-20T15:46:53.078Z,23.23
2019-04-20T15:51:57.806Z,22.89
2019-04-20T15:57:12.386Z,22.08
2019-04-20T16:02:13.584Z,22.24
2019-04-20T16:07:19.319Z,22.48
2019-04-20T16:12:24.918Z,22.04
2019-04-20T16:17:33.788Z,22.40
2019-04-20T16:22:36.569Z,22.27
2019-04-20T16:27:41.610Z,22.19
2019-04-20T16:32:46.309Z,21.51
2019-04-20T16:37:50.830Z,22.86
2019-04-20T16:42:56.383Z,21.68
2019-04-20T16:48:02.151Z,19.90
2019-04-20T16:53:08.767Z,19.11
2019-04-20T16:58:13.605Z,18.71
2019-04-20T17:03:19.551Z,18.38
2019-04-20T17:08:24.989Z,17.99
2019-04-20T17:13:38.003Z,17.70
2019-04-20T17:18:37.243Z,17.45
2019-04-20T17:23:43.891Z,17.15
2019-04-20T17:29:01.965Z,16.89
2019-04-20T17:34:25.734Z,16.68
2019-04-20T17:39:19.625Z,16.50
2019-04-20T17:44:34.512Z,16.38
2019-04-20T17:49:41.193Z,16.22
2019-04-20T17:54:39.793Z,16.06
2019-04-20T17:59:55.910Z,15.92
2019-04-20T18:05:22.062Z,15.77
2019-04-20T18:10:22.502Z,15.63
2019-04-20T18:15:28.056Z,15.49
2019-04-20T18:20:20.791Z,15.38
2019-04-20T18:25:53.280Z,15.25
2019-04-20T18:30:43.632Z,15.16
2019-04-20T18:35:44.332Z,14.99
2019-04-20T18:40:55.963Z,14.73
2019-04-20T18:46:15.090Z,14.67
2019-04-20T18:50:59.781Z,14.67
2019-04-20T18:56:06.126Z,14.65
2019-04-20T19:01:10.897Z,14.54
2019-04-20T19:06:16.077Z,14.43
2019-04-20T19:11:23.486Z,14.27
2019-04-20T19:16:46.660Z,14.15
2019-04-20T19:21:38.318Z,14.04
2019-04-20T19:26:44.981Z,13.96
2019-04-20T19:32:07.387Z,13.78
2019-04-20T19:37:09.301Z,13.61
2019-04-20T19:42:16.107Z,13.42
2019-04-20T19:47:28.432Z,13.21
2019-04-20T19:53:02.159Z,13.03
2019-04-20T19:57:37.357Z,12.90
2019-04-20T20:02:27.868Z,12.74
2019-04-20T20:07:40.189Z,12.54
2019-04-20T20:12:47.059Z,12.04
2019-04-20T20:18:04.753Z,11.91
2019-04-20T20:22:56.793Z,11.79
2019-04-20T20:28:14.538Z,11.69
2019-04-20T20:33:22.154Z,11.56
2019-04-20T20:38:22.419Z,11.43
2019-04-20T20:43:34.298Z,11.19
2019-04-20T20:48:38.784Z,11.19
2019-04-20T20:53:47.071Z,10.83
2019-04-20T20:58:48.565Z,10.46
2019-04-20T21:03:49.112Z,10.36
2019-04-20T21:08:56.075Z,10.13
2019-04-20T21:13:59.295Z,9.98
2019-04-20T21:19:21.475Z,9.87
2019-04-20T21:24:19.224Z,9.71
2019-04-20T21:29:31.499Z,9.59
2019-04-20T21:34:31.065Z,9.49
2019-04-20T21:39:44.107Z,9.38
2019-04-20T21:44:45.354Z,9.18
2019-04-20T21:49:57.982Z,9.11
2019-04-20T21:54:56.214Z,9.01
2019-04-20T22:00:10.135Z,8.86
2019-04-20T22:05:09.515Z,8.78
2019-04-20T22:10:18.980Z,8.68
2019-04-20T22:15:27.118Z,8.82
2019-04-20T22:20:37.007Z,8.84
2019-04-20T22:25:54.529Z,8.91
2019-04-20T22:30:42.091Z,9.03
2019-04-20T22:35:51.579Z,8.94
2019-04-20T22:40:56.424Z,8.80
2019-04-20T22:45:59.215Z,8.71
2019-04-20T22:51:19.589Z,8.72
2019-04-20T22:56:24.389Z,8.76
2019-04-20T23:01:27.704Z,8.70
2019-04-20T23:06:25.866Z,8.53
2019-04-20T23:11:31.860Z,8.44
2019-04-20T23:16:43.279Z,8.53
2019-04-20T23:21:48.608Z,8.65
2019-04-20T23:26:49.381Z,8.67
2019-04-20T23:31:59.351Z,8.60
2019-04-20T23:37:00.984Z,8.57
2019-04-20T23:42:09.562Z,8.56
2019-04-20T23:47:25.499Z,8.39
2019-04-20T23:52:48.805Z,8.31
2019-04-20T23:57:37.749Z,8.19
